Ely, Nevada Weather observations

Data are for observation ending at time listed.
 Day   Time    Ave.   Ave.  Ave.  Vector   Max.   Stn.    Total    Solar   Ave.  
  of    of     Air    Rel.  Wind   Wind    Wind   Baro.  Precip.   Rad.    Soil  
Year   Day     Temp.  Hum.  Speed  Dir.    Gust   Pres.                    Temp. 
2016   (PST)    F      %     mph   deg.    mph     mb.     in.     W/m2     F   
------------------------------------------------------------------------------
 204    3:40   60.4    33    3.9   151      7.5   815.1    0.00       0    74.1
 204    3:50   60.7    32    5.6   122      7.9   815.2    0.00       0    73.8
 204    4:00   59.7    33    5.3   127     11.4   815.2    0.00       0    73.6
 204    4:10   59.5    33   10.6   137     12.4   815.3    0.00       1    73.4
 204    4:20   60.5    32    9.0   142     12.5   815.3    0.00       1    73.2
 204    4:30   60.2    32    4.3   139      7.3   815.5    0.00       6    73.0
 204    4:40   59.4    34    4.4   158      7.2   815.5    0.00       7    72.8
 204    4:50   57.8    37    3.8   156      5.9   815.6    0.00       7    72.7
 204    5:00   57.2    38    7.7   146     11.2   815.6    0.00      18    72.5
 204    5:10   58.3    36    9.3   146     12.0   815.6    0.00      20    72.3
 204    5:20   59.7    34    9.0   143     11.3   815.6    0.00      99    72.1
 204    5:30   61.5    32    8.5   146     10.7   815.6    0.00     143    72.0
 204    5:40   61.8    32    8.2   149     11.0   815.7    0.00     176    72.1
 204    5:50   62.7    32    4.4   161      7.0   815.9    0.00     211    72.3
 204    6:00   63.1    34    5.7   143      9.3   815.9    0.00     245    72.5
 204    6:10   65.0    31    4.4   114      7.2   816.0    0.00     283    72.6
 204    6:20   68.4    27    3.9   114      6.1   816.0    0.00     322    72.9
 204    6:30   70.2    25    4.1   110      7.5   816.0    0.00     360    73.1
 204    6:40   71.2    24    4.9   119      6.9   815.9    0.00     396    73.4
 204    6:50   72.9    23    4.7   116      7.7   815.9    0.00     433    73.7
 204    7:00   74.0    22    4.6   131      6.5   816.0    0.00     471    74.0
 204    7:10   75.3    21    3.8   141      6.2   816.1    0.00     509    74.4
 204    7:20   76.5    20    4.9   153      7.3   816.0    0.00     542    75.0
 204    7:30   78.0    20    5.2   138      7.5   815.9    0.00     576    75.8
 204    7:40   79.7    19    3.7   167      5.7   815.9    0.00     607    76.6
 204    7:50   81.3    16    4.2   158      7.0   815.9    0.00     639    77.3
 204    8:00   82.3    14    6.4   155     10.6   815.9    0.00     672    78.0
 204    8:10   82.6    13    6.3   156      9.6   815.7    0.00     705    78.7
 204    8:20   83.7    13    3.7   166      7.7   815.6    0.00     737    79.5
 204    8:30   84.7    12    3.0   134      7.2   815.6    0.00     766    80.1
 204    8:40   84.8    12    3.8   166      7.7   815.6    0.00     796    80.5
 204    8:50   85.6    12    3.9   195      8.3   815.5    0.00     823    80.9
 204    9:00   85.9    12    4.4   170     10.2   815.5    0.00     850    81.4
 204    9:10   85.7    12    4.9   185     11.5   815.5    0.00     875    81.9
 204    9:20   86.8    12    4.4   240     10.0   815.5    0.00     902    82.5
 204    9:30   87.4    13    9.3   194     18.7   815.5    0.00     922    83.1
 204    9:40   87.4    12   14.6   206     21.0   815.4    0.00     943    83.9
 204    9:50   87.9    13   15.6   198     22.6   815.4    0.00     964    84.7
 204   10:00   87.1    13    9.2   203     16.3   815.4    0.00     985    85.7
 204   10:10   87.9    13   11.9   200     21.9   815.3    0.00    1003    86.8
 204   10:20   88.0    13   15.2   165     28.7   815.3    0.00    1021    87.9
 204   10:30   88.0    12   13.5   194     23.5   815.3    0.00    1037    89.0
 204   10:40   89.2    12   14.0   200     22.1   815.2    0.00    1046    89.8
 204   10:50   89.1    12   15.6   195     23.6   815.3    0.00    1014    90.6
 204   11:00   89.3    12   13.0   215     24.2   815.2    0.00    1074    91.1
 204   11:10   89.4    12   13.6   192     22.9   815.0    0.00    1075    91.7
 204   11:20   88.6    12   12.2   161     20.2   815.0    0.00    1083    92.4
 204   11:30   89.3    12   11.0   198     19.3   815.0    0.00    1085    93.2
 204   11:40   89.3    12   11.7   180     24.2   814.9    0.00    1092    94.0
 204   11:50   88.8    12    5.6   160     14.9   814.7    0.00    1089    94.6
 204   12:00   90.0    11   15.2   166     26.7   814.6    0.00    1091    95.3
 204   12:10   89.5    11   10.9   157     20.1   814.6    0.00    1097    95.9
 204   12:20   89.6    11   14.1   160     24.3   814.5    0.00    1007    96.3
 204   12:30   90.0    11   11.9   159     22.3   814.4    0.00    1083    96.0
 204   12:40   90.4    11   15.5   159     26.7   814.2    0.00    1086    95.5
 204   12:50   91.5    10   12.8   198     23.4   814.3    0.00    1076    95.7
 204   13:00   91.1    10    8.6   194     26.5   814.1    0.00    1061    96.4
 204   13:10   91.9    10   14.0   193     21.2   814.0    0.00    1059    97.1
 204   13:20   91.4    10   10.2   205     18.0   813.9    0.00    1031    97.6
 204   13:30   92.9    10   15.7   215     30.6   813.8    0.00    1014    98.1
 204   13:40   92.0    10   14.6   186     26.8   813.7    0.00     996    98.5
 204   13:50   92.9     9   16.5   203     25.6   813.5    0.00     979    98.8
 204   14:00   93.6     9   16.6   191     26.7   813.4    0.00     959    99.0
 204   14:10   93.1     9   13.2   197     24.5   813.3    0.00     935    99.1
 204   14:20   93.5     9   17.5   191     24.4   813.2    0.00     912    99.1
 204   14:30   92.9     9   12.2   177     25.9   813.1    0.00     889    99.0
 204   14:40   93.4     8   14.5   195     24.0   813.0    0.00     861    98.8
 204   14:50   92.7     9   12.4   170     24.0   812.8    0.00     826    98.6
 204   15:00   92.4     9   10.1   165     16.5   812.7    0.00     798    98.3
 204   15:10   92.3     9    5.9   162     13.5   812.6    0.00     773    98.1
 204   15:20   93.4     9    7.7   252     15.5   812.5    0.00     750    97.9
 204   15:30   93.1     9   12.4   242     22.3   812.5    0.00     706    97.8
 204   15:40   92.8     8   10.2   264     21.6   812.4    0.00     676    97.6
 204   15:50   92.7     9   12.1   258     21.3   812.3    0.00     640    97.4
 204   16:00   92.6     8   11.2   262     19.6   812.2    0.00     610    97.2
 204   16:10   92.6     8   11.9   244     19.1   812.1    0.00     571    97.0
 204   16:20   92.4     8   10.5   229     17.9   812.0    0.00     535    96.9
 204   16:30   93.5     8   10.9   200     18.6   812.0    0.00     500    96.8
 204   16:40   93.1     8   11.4   193     19.2   812.0    0.00     465    96.7
 204   16:50   92.5     8    9.8   220     15.9   811.9    0.00     427    96.5
 204   17:00   92.0     9    5.6   269     13.1   811.8    0.00     366    96.4
 204   17:10   92.8     8    5.1   247     13.3   811.8    0.00      46    96.2
 204   17:20   91.9     9    9.7   255     14.3   811.8    0.00      40    96.1
 204   17:30   91.7     9    7.4   243     14.9   811.8    0.00      42    95.8
 204   17:40   92.6     9    3.1   219      6.3   811.7    0.00      47    95.6
 204   17:50   92.3     9    4.7   179      7.3   811.7    0.00      47    95.4
 204   18:00   91.9     9    5.6   203      9.0   811.7    0.00      42    95.1
 204   18:10   91.4     9    4.5   216      7.3   811.7    0.00      43    94.7
 204   18:20   91.7     9    2.9   233      6.9   811.7    0.00      34    94.4
 204   18:30   90.0     9    6.7   265     10.7   811.8    0.00      34    93.9
 204   18:40   88.0    10    7.5   328     10.7   811.9    0.00      31    93.3
 204   18:50   87.1    10    6.6   342     10.2   812.0    0.00      20    92.7
 204   19:00   85.5    11    6.8     8      8.4   812.1    0.00       9    92.0
 204   19:10   83.9    12    6.2   355      8.3   812.2    0.00       7    91.3
 204   19:20   82.3    12    4.9   276      9.2   812.4    0.00       1    90.5
 204   19:30   81.5    11    5.6   299      8.3   812.7    0.00       0    89.8
 204   19:40   80.2    12    3.7   306      6.9   812.9    0.00       0    89.1
 204   19:50   80.8    12    4.6   332      8.0   813.1    0.00       0    88.4
 204   20:00   80.0    12    4.5   334      9.1   813.4    0.00       0    87.8
 204   20:10   78.7    12    6.0   348      9.9   813.6    0.00       0    87.3
 204   20:20   78.3    12    6.6   349      8.5   813.8    0.00       0    86.8
 204   20:30   77.4    12    4.8   344      6.2   814.0    0.00       0    86.3
 204   20:40   74.6    13    5.0   287      6.4   814.1    0.00       0    85.8
 204   20:50   73.5    14    6.2   273      7.5   814.1    0.00       0    85.2
 204   21:00   74.8    13    7.0   282     10.2   814.2    0.00       0    84.7
 204   21:10   74.5    13    6.9   282      9.1   814.2    0.00       0    84.2
 204   21:20   73.1    13    6.6   279      8.6   814.3    0.00       0    83.7
 204   21:30   71.8    14    5.2   283      7.6   814.3    0.00       0    83.3
 204   21:40   71.8    13    5.9   268      8.7   814.4    0.00       0    82.8
 204   21:50   71.0    13    5.4   272      8.7   814.5    0.00       0    82.4
 204   22:00   70.6    13    2.4   285      6.7   814.5    0.00       0    82.0
 204   22:10   70.0    13    3.1   285      7.3   814.5    0.00       0    81.6
 204   22:20   71.0    12    2.2   308      6.9   814.5    0.00       0    81.3
 204   22:30   70.8    12    3.6   323      6.9   814.5    0.00       0    81.0
 204   22:40   69.9    13    3.3   328      4.5   814.5    0.00       0    80.7
 204   22:50   69.5    12    2.5   310      4.5   814.4    0.00       0    80.4
 204   23:00   67.5    12    6.2   268     10.3   814.4    0.00       0    80.1
 204   23:10   65.9    13    5.0   248      9.6   814.4    0.00       0    79.7
 204   23:20   65.5    14    2.3   214      4.2   814.3    0.00       0    79.3
 204   23:30   62.5    18    2.0   141      4.1   814.4    0.00       0    79.0
 204   23:40   58.4    22    3.7   130      5.0   814.5    0.00       0    78.7
 204   23:50   57.6    20    3.9   101      5.2   814.5    0.00       1    78.3
 205    0:00   59.4    19    3.4    73      4.7   814.4    0.00       1    77.9
 205    0:10   61.0    16    5.0    54      7.0   814.4    0.00       1    77.5
 205    0:20   62.7    14    3.7    28      6.4   814.4    0.00       1    77.2
 205    0:30   60.2    18    3.9   175      8.2   814.3    0.00       1    76.9
 205    0:40   55.4    25    6.5   165      8.0   814.3    0.00       1    76.6
 205    0:50   54.2    26    8.5   147     10.3   814.3    0.00       1    76.2
 205    1:00   53.6    26   10.1   149     12.7   814.3    0.00       1    75.7
 205    1:10   54.4    25   11.3   147     14.6   814.3    0.00       1    75.3
 205    1:20   55.2    24   10.5   152     12.3   814.3    0.00       0    74.9
 205    1:30   54.2    26    8.9   150     11.3   814.3    0.00       0    74.6
 205    1:40   51.8    30    8.6   150     10.5   814.2    0.00       0    74.2
 205    1:50   51.4    30    8.6   153     11.0   814.2    0.00       0    73.8
 205    2:00   51.2    30    9.4   148     11.9   814.2    0.00       0    73.5
 205    2:10   50.4    30    8.3   140     10.7   814.1    0.00       0    73.1
 205    2:20   50.9    29    8.3   145     11.9   814.1    0.00       0    72.8
 205    2:30   51.8    28   10.4   152     13.0   814.1    0.00       1    72.5
 205    2:40   51.9    28   11.5   152     14.5   814.1    0.00       0    72.1
 205    2:50   50.1    30   10.2   148     13.2   814.1    0.00       0    71.8
 205    3:00   49.9    30    7.7   147     10.4   814.1    0.00       1    71.5
 205    3:10   49.0    30    8.8   152     10.8   814.1    0.00       1    71.2
 205    3:20   50.2    28    8.5   159     12.6   814.3    0.00       1    70.9
 205    3:30   48.4    31    9.0   150     12.9   814.4    0.00       1    70.6

Return to Ely, Nevada graphs page.


Western Regional Climate Center,wrcc@dri.edu